sensor_id;sensor_type;location;lat;lon;timestamp;P1;durP1;ratioP1;P2;durP2;ratioP2
58015;SDS011;43809;52.110;20.964;2022-07-29T00:01:30;1.53;;;1.10;;
58015;SDS011;43809;52.110;20.964;2022-07-29T00:03:30;2.10;;;1.73;;
58015;SDS011;43809;52.110;20.964;2022-07-29T00:05:31;3.47;;;2.27;;
58015;SDS011;43809;52.110;20.964;2022-07-29T00:07:31;3.30;;;1.90;;
58015;SDS011;43809;52.110;20.964;2022-07-29T00:09:31;2.00;;;1.50;;
58015;SDS011;43809;52.110;20.964;2022-07-29T00:11:31;1.30;;;1.17;;
58015;SDS011;43809;52.110;20.964;2022-07-29T00:13:32;1.40;;;1.03;;
58015;SDS011;43809;52.110;20.964;2022-07-29T00:15:32;1.40;;;0.98;;
58015;SDS011;43809;52.110;20.964;2022-07-29T00:17:32;1.38;;;1.08;;
58015;SDS011;43809;52.110;20.964;2022-07-29T00:19:33;1.77;;;0.88;;
58015;SDS011;43809;52.110;20.964;2022-07-29T00:21:34;1.70;;;1.20;;
58015;SDS011;43809;52.110;20.964;2022-07-29T00:23:34;2.97;;;1.37;;
58015;SDS011;43809;52.110;20.964;2022-07-29T00:25:34;2.53;;;1.77;;
58015;SDS011;43809;52.110;20.964;2022-07-29T00:27:35;2.13;;;1.33;;
58015;SDS011;43809;52.110;20.964;2022-07-29T00:29:35;1.83;;;1.55;;
58015;SDS011;43809;52.110;20.964;2022-07-29T00:31:35;2.42;;;2.00;;
58015;SDS011;43809;52.110;20.964;2022-07-29T00:33:36;2.13;;;1.90;;
58015;SDS011;43809;52.110;20.964;2022-07-29T00:35:36;1.97;;;1.80;;
58015;SDS011;43809;52.110;20.964;2022-07-29T00:37:45;1.77;;;1.48;;
58015;SDS011;43809;52.110;20.964;2022-07-29T00:39:46;3.17;;;1.95;;
58015;SDS011;43809;52.110;20.964;2022-07-29T00:41:46;1.70;;;1.60;;
58015;SDS011;43809;52.110;20.964;2022-07-29T00:43:47;2.93;;;1.70;;
58015;SDS011;43809;52.110;20.964;2022-07-29T00:45:47;2.22;;;1.52;;
58015;SDS011;43809;52.110;20.964;2022-07-29T00:47:47;1.63;;;1.43;;
58015;SDS011;43809;52.110;20.964;2022-07-29T00:49:47;2.88;;;1.92;;
58015;SDS011;43809;52.110;20.964;2022-07-29T00:51:47;3.87;;;1.97;;
58015;SDS011;43809;52.110;20.964;2022-07-29T00:53:48;3.10;;;2.00;;
58015;SDS011;43809;52.110;20.964;2022-07-29T00:55:50;2.53;;;1.88;;
58015;SDS011;43809;52.110;20.964;2022-07-29T00:57:50;3.90;;;2.23;;
58015;SDS011;43809;52.110;20.964;2022-07-29T00:59:52;2.78;;;2.00;;
58015;SDS011;43809;52.110;20.964;2022-07-29T01:01:52;3.23;;;1.80;;
58015;SDS011;43809;52.110;20.964;2022-07-29T01:03:52;3.25;;;2.33;;
58015;SDS011;43809;52.110;20.964;2022-07-29T01:05:53;3.00;;;1.98;;
58015;SDS011;43809;52.110;20.964;2022-07-29T01:07:54;2.88;;;2.05;;
58015;SDS011;43809;52.110;20.964;2022-07-29T01:09:54;3.22;;;2.60;;
58015;SDS011;43809;52.110;20.964;2022-07-29T01:11:55;6.15;;;2.80;;
58015;SDS011;43809;52.110;20.964;2022-07-29T01:13:55;4.45;;;2.70;;
58015;SDS011;43809;52.110;20.964;2022-07-29T01:15:58;4.07;;;2.40;;
58015;SDS011;43809;52.110;20.964;2022-07-29T01:18:01;3.55;;;2.63;;
58015;SDS011;43809;52.110;20.964;2022-07-29T01:20:07;3.92;;;2.10;;
58015;SDS011;43809;52.110;20.964;2022-07-29T01:22:57;3.83;;;2.58;;
58015;SDS011;43809;52.110;20.964;2022-07-29T01:24:33;2.25;;;2.05;;
58015;SDS011;43809;52.110;20.964;2022-07-29T01:28:57;3.10;;;2.80;;
58015;SDS011;43809;52.110;20.964;2022-07-29T01:30:58;3.60;;;2.50;;
58015;SDS011;43809;52.110;20.964;2022-07-29T01:33:01;2.67;;;2.03;;
58015;SDS011;43809;52.110;20.964;2022-07-29T01:37:26;4.67;;;2.57;;
58015;SDS011;43809;52.110;20.964;2022-07-29T01:39:26;3.40;;;2.28;;
58015;SDS011;43809;52.110;20.964;2022-07-29T01:41:27;3.28;;;2.10;;
58015;SDS011;43809;52.110;20.964;2022-07-29T01:43:32;3.38;;;2.47;;
58015;SDS011;43809;52.110;20.964;2022-07-29T01:45:40;2.92;;;2.40;;
58015;SDS011;43809;52.110;20.964;2022-07-29T01:50:08;2.90;;;1.73;;
58015;SDS011;43809;52.110;20.964;2022-07-29T01:52:15;2.33;;;1.80;;
58015;SDS011;43809;52.110;20.964;2022-07-29T01:54:26;2.55;;;2.00;;
58015;SDS011;43809;52.110;20.964;2022-07-29T01:56:28;2.65;;;2.00;;
58015;SDS011;43809;52.110;20.964;2022-07-29T01:58:32;3.60;;;2.60;;
58015;SDS011;43809;52.110;20.964;2022-07-29T02:00:33;3.70;;;2.70;;
58015;SDS011;43809;52.110;20.964;2022-07-29T02:02:34;3.22;;;2.50;;
58015;SDS011;43809;52.110;20.964;2022-07-29T02:04:35;3.42;;;2.10;;
58015;SDS011;43809;52.110;20.964;2022-07-29T02:06:37;3.45;;;2.22;;
58015;SDS011;43809;52.110;20.964;2022-07-29T02:08:38;3.03;;;2.45;;
58015;SDS011;43809;52.110;20.964;2022-07-29T02:10:39;3.60;;;2.65;;
58015;SDS011;43809;52.110;20.964;2022-07-29T02:12:40;2.55;;;2.15;;
58015;SDS011;43809;52.110;20.964;2022-07-29T02:14:43;2.63;;;2.10;;
58015;SDS011;43809;52.110;20.964;2022-07-29T02:16:45;2.35;;;1.77;;
58015;SDS011;43809;52.110;20.964;2022-07-29T02:18:47;2.03;;;1.83;;
58015;SDS011;43809;52.110;20.964;2022-07-29T02:20:49;2.30;;;1.60;;
58015;SDS011;43809;52.110;20.964;2022-07-29T02:22:50;2.92;;;1.50;;
58015;SDS011;43809;52.110;20.964;2022-07-29T02:24:51;2.23;;;1.40;;
58015;SDS011;43809;52.110;20.964;2022-07-29T02:26:53;1.70;;;1.33;;
58015;SDS011;43809;52.110;20.964;2022-07-29T02:28:56;1.70;;;1.02;;
58015;SDS011;43809;52.110;20.964;2022-07-29T02:30:58;1.48;;;1.35;;
58015;SDS011;43809;52.110;20.964;2022-07-29T02:32:59;3.30;;;1.20;;
58015;SDS011;43809;52.110;20.964;2022-07-29T02:34:59;2.40;;;1.50;;
58015;SDS011;43809;52.110;20.964;2022-07-29T02:37:00;2.00;;;1.48;;
58015;SDS011;43809;52.110;20.964;2022-07-29T02:39:02;2.08;;;1.65;;
58015;SDS011;43809;52.110;20.964;2022-07-29T02:41:03;1.75;;;1.50;;
58015;SDS011;43809;52.110;20.964;2022-07-29T02:43:05;2.83;;;1.83;;
58015;SDS011;43809;52.110;20.964;2022-07-29T02:45:07;4.32;;;1.90;;
58015;SDS011;43809;52.110;20.964;2022-07-29T02:47:18;3.22;;;1.98;;
58015;SDS011;43809;52.110;20.964;2022-07-29T02:51:27;2.47;;;1.75;;
58015;SDS011;43809;52.110;20.964;2022-07-29T02:53:28;1.70;;;1.60;;
58015;SDS011;43809;52.110;20.964;2022-07-29T02:57:32;1.83;;;1.23;;
58015;SDS011;43809;52.110;20.964;2022-07-29T02:59:34;2.05;;;1.50;;
58015;SDS011;43809;52.110;20.964;2022-07-29T03:01:36;3.53;;;1.50;;
58015;SDS011;43809;52.110;20.964;2022-07-29T03:05:39;2.45;;;1.30;;
58015;SDS011;43809;52.110;20.964;2022-07-29T03:07:40;4.78;;;1.80;;
58015;SDS011;43809;52.110;20.964;2022-07-29T03:09:42;2.83;;;1.60;;
58015;SDS011;43809;52.110;20.964;2022-07-29T03:11:44;2.15;;;1.67;;
58015;SDS011;43809;52.110;20.964;2022-07-29T03:13:44;2.33;;;1.27;;
58015;SDS011;43809;52.110;20.964;2022-07-29T03:15:45;2.35;;;1.30;;
58015;SDS011;43809;52.110;20.964;2022-07-29T03:17:45;1.60;;;1.48;;
58015;SDS011;43809;52.110;20.964;2022-07-29T03:19:46;2.42;;;1.20;;
58015;SDS011;43809;52.110;20.964;2022-07-29T03:21:46;1.83;;;1.30;;
58015;SDS011;43809;52.110;20.964;2022-07-29T03:23:46;2.15;;;1.50;;
58015;SDS011;43809;52.110;20.964;2022-07-29T03:25:46;4.03;;;1.67;;
58015;SDS011;43809;52.110;20.964;2022-07-29T03:27:47;2.22;;;1.80;;
58015;SDS011;43809;52.110;20.964;2022-07-29T03:29:48;1.70;;;1.38;;
58015;SDS011;43809;52.110;20.964;2022-07-29T03:31:48;1.80;;;1.50;;
58015;SDS011;43809;52.110;20.964;2022-07-29T03:33:48;1.40;;;1.10;;
58015;SDS011;43809;52.110;20.964;2022-07-29T03:35:48;2.75;;;1.40;;
58015;SDS011;43809;52.110;20.964;2022-07-29T03:37:49;1.77;;;1.20;;
58015;SDS011;43809;52.110;20.964;2022-07-29T03:39:49;2.33;;;1.30;;
58015;SDS011;43809;52.110;20.964;2022-07-29T03:41:52;2.17;;;1.20;;
58015;SDS011;43809;52.110;20.964;2022-07-29T03:43:53;1.70;;;1.23;;
58015;SDS011;43809;52.110;20.964;2022-07-29T03:45:53;2.22;;;1.40;;
58015;SDS011;43809;52.110;20.964;2022-07-29T03:47:56;1.80;;;1.10;;
58015;SDS011;43809;52.110;20.964;2022-07-29T03:49:59;2.03;;;1.58;;
58015;SDS011;43809;52.110;20.964;2022-07-29T03:52:00;1.85;;;1.33;;
58015;SDS011;43809;52.110;20.964;2022-07-29T03:54:01;2.92;;;1.50;;
58015;SDS011;43809;52.110;20.964;2022-07-29T03:56:01;2.65;;;1.30;;
58015;SDS011;43809;52.110;20.964;2022-07-29T03:58:01;2.38;;;1.55;;
58015;SDS011;43809;52.110;20.964;2022-07-29T04:00:03;1.55;;;1.20;;
58015;SDS011;43809;52.110;20.964;2022-07-29T04:02:05;2.13;;;1.17;;
58015;SDS011;43809;52.110;20.964;2022-07-29T04:04:06;1.30;;;1.20;;
58015;SDS011;43809;52.110;20.964;2022-07-29T04:06:06;1.70;;;1.35;;
58015;SDS011;43809;52.110;20.964;2022-07-29T04:08:06;2.08;;;1.30;;
58015;SDS011;43809;52.110;20.964;2022-07-29T04:10:07;3.23;;;1.60;;
58015;SDS011;43809;52.110;20.964;2022-07-29T04:12:07;1.20;;;1.10;;
58015;SDS011;43809;52.110;20.964;2022-07-29T04:14:08;1.50;;;1.08;;
58015;SDS011;43809;52.110;20.964;2022-07-29T04:16:08;2.03;;;1.10;;
58015;SDS011;43809;52.110;20.964;2022-07-29T04:18:08;1.53;;;1.37;;
58015;SDS011;43809;52.110;20.964;2022-07-29T04:20:08;1.37;;;1.27;;
58015;SDS011;43809;52.110;20.964;2022-07-29T04:22:09;1.77;;;1.40;;
58015;SDS011;43809;52.110;20.964;2022-07-29T04:24:09;2.73;;;1.40;;
58015;SDS011;43809;52.110;20.964;2022-07-29T04:26:21;1.40;;;1.30;;
58015;SDS011;43809;52.110;20.964;2022-07-29T04:28:21;2.53;;;1.73;;
58015;SDS011;43809;52.110;20.964;2022-07-29T04:30:21;3.60;;;1.53;;
58015;SDS011;43809;52.110;20.964;2022-07-29T04:32:22;2.27;;;1.43;;
58015;SDS011;43809;52.110;20.964;2022-07-29T04:34:22;2.67;;;1.47;;
58015;SDS011;43809;52.110;20.964;2022-07-29T04:36:22;3.92;;;1.63;;
58015;SDS011;43809;52.110;20.964;2022-07-29T04:38:22;2.10;;;1.50;;
58015;SDS011;43809;52.110;20.964;2022-07-29T04:40:22;1.65;;;1.20;;
58015;SDS011;43809;52.110;20.964;2022-07-29T04:42:41;4.07;;;1.60;;
58015;SDS011;43809;52.110;20.964;2022-07-29T04:44:41;1.67;;;1.58;;
58015;SDS011;43809;52.110;20.964;2022-07-29T04:46:41;3.47;;;1.70;;
58015;SDS011;43809;52.110;20.964;2022-07-29T04:48:41;2.20;;;1.43;;
58015;SDS011;43809;52.110;20.964;2022-07-29T04:50:41;2.00;;;1.40;;
58015;SDS011;43809;52.110;20.964;2022-07-29T04:52:42;3.65;;;1.70;;
58015;SDS011;43809;52.110;20.964;2022-07-29T04:54:42;2.70;;;1.75;;
58015;SDS011;43809;52.110;20.964;2022-07-29T04:56:42;3.30;;;1.57;;
58015;SDS011;43809;52.110;20.964;2022-07-29T04:58:42;3.95;;;1.58;;
58015;SDS011;43809;52.110;20.964;2022-07-29T05:00:42;2.07;;;1.30;;
58015;SDS011;43809;52.110;20.964;2022-07-29T05:02:42;2.85;;;1.35;;
58015;SDS011;43809;52.110;20.964;2022-07-29T05:04:43;4.00;;;1.50;;
58015;SDS011;43809;52.110;20.964;2022-07-29T05:06:43;4.25;;;1.65;;
58015;SDS011;43809;52.110;20.964;2022-07-29T05:08:44;2.73;;;1.63;;
58015;SDS011;43809;52.110;20.964;2022-07-29T05:10:44;1.65;;;1.50;;
58015;SDS011;43809;52.110;20.964;2022-07-29T05:12:44;2.67;;;1.50;;
58015;SDS011;43809;52.110;20.964;2022-07-29T05:14:45;2.93;;;1.67;;
58015;SDS011;43809;52.110;20.964;2022-07-29T05:18:50;2.38;;;1.50;;
58015;SDS011;43809;52.110;20.964;2022-07-29T05:20:51;2.37;;;1.17;;
58015;SDS011;43809;52.110;20.964;2022-07-29T05:22:51;1.48;;;1.20;;
58015;SDS011;43809;52.110;20.964;2022-07-29T05:24:52;3.63;;;1.58;;
58015;SDS011;43809;52.110;20.964;2022-07-29T05:26:52;2.58;;;1.63;;
58015;SDS011;43809;52.110;20.964;2022-07-29T05:28:52;2.63;;;1.50;;
58015;SDS011;43809;52.110;20.964;2022-07-29T05:30:53;1.42;;;1.20;;
58015;SDS011;43809;52.110;20.964;2022-07-29T05:32:53;4.00;;;1.50;;
58015;SDS011;43809;52.110;20.964;2022-07-29T05:34:54;2.23;;;1.53;;
58015;SDS011;43809;52.110;20.964;2022-07-29T05:36:54;2.40;;;1.30;;
58015;SDS011;43809;52.110;20.964;2022-07-29T05:38:54;1.85;;;1.10;;
58015;SDS011;43809;52.110;20.964;2022-07-29T05:40:58;2.30;;;1.33;;
58015;SDS011;43809;52.110;20.964;2022-07-29T05:42:59;3.45;;;1.38;;
58015;SDS011;43809;52.110;20.964;2022-07-29T05:44:59;4.63;;;1.50;;
58015;SDS011;43809;52.110;20.964;2022-07-29T05:46:59;1.65;;;1.08;;
58015;SDS011;43809;52.110;20.964;2022-07-29T05:49:00;1.63;;;0.90;;
58015;SDS011;43809;52.110;20.964;2022-07-29T05:51:00;1.03;;;0.90;;
58015;SDS011;43809;52.110;20.964;2022-07-29T05:53:00;3.67;;;0.88;;
58015;SDS011;43809;52.110;20.964;2022-07-29T05:55:00;3.13;;;1.10;;
58015;SDS011;43809;52.110;20.964;2022-07-29T05:57:04;2.65;;;0.98;;
58015;SDS011;43809;52.110;20.964;2022-07-29T05:59:05;1.80;;;1.13;;
58015;SDS011;43809;52.110;20.964;2022-07-29T06:01:06;2.20;;;1.20;;
58015;SDS011;43809;52.110;20.964;2022-07-29T06:03:06;2.92;;;1.40;;
58015;SDS011;43809;52.110;20.964;2022-07-29T06:05:06;1.00;;;0.90;;
58015;SDS011;43809;52.110;20.964;2022-07-29T06:07:07;2.15;;;1.20;;
58015;SDS011;43809;52.110;20.964;2022-07-29T06:09:07;2.43;;;1.17;;
58015;SDS011;43809;52.110;20.964;2022-07-29T06:11:07;2.35;;;1.05;;
58015;SDS011;43809;52.110;20.964;2022-07-29T06:13:08;2.50;;;1.20;;
58015;SDS011;43809;52.110;20.964;2022-07-29T06:15:08;1.77;;;1.10;;
58015;SDS011;43809;52.110;20.964;2022-07-29T06:17:09;1.88;;;1.00;;
58015;SDS011;43809;52.110;20.964;2022-07-29T06:19:11;1.25;;;0.90;;
58015;SDS011;43809;52.110;20.964;2022-07-29T06:21:11;0.95;;;0.75;;
58015;SDS011;43809;52.110;20.964;2022-07-29T06:23:11;1.70;;;0.90;;
58015;SDS011;43809;52.110;20.964;2022-07-29T06:25:12;1.70;;;0.90;;
58015;SDS011;43809;52.110;20.964;2022-07-29T06:27:12;1.47;;;0.90;;
58015;SDS011;43809;52.110;20.964;2022-07-29T06:29:13;1.77;;;0.90;;
58015;SDS011;43809;52.110;20.964;2022-07-29T06:31:13;3.33;;;1.02;;
58015;SDS011;43809;52.110;20.964;2022-07-29T06:33:17;1.63;;;0.70;;
58015;SDS011;43809;52.110;20.964;2022-07-29T06:35:18;1.50;;;1.00;;
58015;SDS011;43809;52.110;20.964;2022-07-29T06:37:18;2.90;;;1.30;;
58015;SDS011;43809;52.110;20.964;2022-07-29T06:39:18;2.40;;;1.10;;
58015;SDS011;43809;52.110;20.964;2022-07-29T06:41:19;1.90;;;0.93;;
58015;SDS011;43809;52.110;20.964;2022-07-29T06:43:19;1.33;;;0.80;;
58015;SDS011;43809;52.110;20.964;2022-07-29T06:45:19;2.30;;;1.40;;
58015;SDS011;43809;52.110;20.964;2022-07-29T06:47:19;3.13;;;1.10;;
58015;SDS011;43809;52.110;20.964;2022-07-29T06:49:19;1.33;;;0.90;;
58015;SDS011;43809;52.110;20.964;2022-07-29T06:51:20;1.43;;;0.70;;
58015;SDS011;43809;52.110;20.964;2022-07-29T06:53:20;3.57;;;1.00;;
58015;SDS011;43809;52.110;20.964;2022-07-29T06:55:20;1.07;;;0.70;;
58015;SDS011;43809;52.110;20.964;2022-07-29T06:57:21;1.53;;;0.80;;
58015;SDS011;43809;52.110;20.964;2022-07-29T06:59:21;0.97;;;0.87;;
58015;SDS011;43809;52.110;20.964;2022-07-29T07:01:21;5.07;;;1.30;;
58015;SDS011;43809;52.110;20.964;2022-07-29T07:03:21;1.90;;;0.97;;
58015;SDS011;43809;52.110;20.964;2022-07-29T07:05:22;1.50;;;0.90;;
58015;SDS011;43809;52.110;20.964;2022-07-29T07:07:22;2.03;;;1.13;;
58015;SDS011;43809;52.110;20.964;2022-07-29T07:09:22;2.00;;;0.90;;
58015;SDS011;43809;52.110;20.964;2022-07-29T07:11:22;1.80;;;0.83;;
58015;SDS011;43809;52.110;20.964;2022-07-29T07:13:23;1.63;;;0.90;;
58015;SDS011;43809;52.110;20.964;2022-07-29T07:15:23;1.17;;;0.80;;
58015;SDS011;43809;52.110;20.964;2022-07-29T07:17:23;2.10;;;0.90;;
58015;SDS011;43809;52.110;20.964;2022-07-29T07:19:24;1.00;;;0.90;;
58015;SDS011;43809;52.110;20.964;2022-07-29T07:21:24;1.00;;;0.90;;
58015;SDS011;43809;52.110;20.964;2022-07-29T07:23:24;3.33;;;0.97;;
58015;SDS011;43809;52.110;20.964;2022-07-29T07:25:24;2.22;;;1.05;;
58015;SDS011;43809;52.110;20.964;2022-07-29T07:27:25;1.58;;;0.88;;
58015;SDS011;43809;52.110;20.964;2022-07-29T07:29:26;3.30;;;1.00;;
58015;SDS011;43809;52.110;20.964;2022-07-29T07:31:26;1.73;;;1.00;;
58015;SDS011;43809;52.110;20.964;2022-07-29T07:33:26;2.07;;;1.40;;
58015;SDS011;43809;52.110;20.964;2022-07-29T07:35:26;2.43;;;1.13;;
58015;SDS011;43809;52.110;20.964;2022-07-29T07:37:27;1.40;;;0.90;;
58015;SDS011;43809;52.110;20.964;2022-07-29T07:39:27;1.40;;;0.67;;
58015;SDS011;43809;52.110;20.964;2022-07-29T07:41:28;1.13;;;0.70;;
58015;SDS011;43809;52.110;20.964;2022-07-29T07:43:28;2.97;;;0.80;;
58015;SDS011;43809;52.110;20.964;2022-07-29T07:45:28;1.83;;;0.80;;
58015;SDS011;43809;52.110;20.964;2022-07-29T07:47:28;0.70;;;0.70;;
58015;SDS011;43809;52.110;20.964;2022-07-29T07:49:28;1.03;;;0.80;;
58015;SDS011;43809;52.110;20.964;2022-07-29T07:51:28;0.77;;;0.77;;
58015;SDS011;43809;52.110;20.964;2022-07-29T07:53:30;2.23;;;0.77;;
58015;SDS011;43809;52.110;20.964;2022-07-29T07:55:30;2.53;;;0.90;;
58015;SDS011;43809;52.110;20.964;2022-07-29T07:57:30;3.03;;;0.83;;
58015;SDS011;43809;52.110;20.964;2022-07-29T07:59:31;1.88;;;0.73;;
58015;SDS011;43809;52.110;20.964;2022-07-29T08:01:31;1.50;;;0.70;;
58015;SDS011;43809;52.110;20.964;2022-07-29T08:03:31;0.90;;;0.90;;
58015;SDS011;43809;52.110;20.964;2022-07-29T08:05:32;2.80;;;0.80;;
58015;SDS011;43809;52.110;20.964;2022-07-29T08:07:32;1.23;;;0.80;;
58015;SDS011;43809;52.110;20.964;2022-07-29T08:09:33;1.73;;;0.80;;
58015;SDS011;43809;52.110;20.964;2022-07-29T08:11:34;1.90;;;0.90;;
58015;SDS011;43809;52.110;20.964;2022-07-29T08:13:34;1.10;;;0.70;;
58015;SDS011;43809;52.110;20.964;2022-07-29T08:15:34;0.87;;;0.70;;
58015;SDS011;43809;52.110;20.964;2022-07-29T08:17:35;1.25;;;0.90;;
58015;SDS011;43809;52.110;20.964;2022-07-29T08:19:35;1.23;;;0.80;;
58015;SDS011;43809;52.110;20.964;2022-07-29T08:21:37;1.80;;;0.82;;
58015;SDS011;43809;52.110;20.964;2022-07-29T08:23:37;1.25;;;0.80;;
58015;SDS011;43809;52.110;20.964;2022-07-29T08:25:45;3.25;;;1.30;;
58015;SDS011;43809;52.110;20.964;2022-07-29T08:27:46;1.83;;;0.80;;
58015;SDS011;43809;52.110;20.964;2022-07-29T08:29:46;1.40;;;0.80;;
58015;SDS011;43809;52.110;20.964;2022-07-29T08:31:47;1.33;;;0.70;;
58015;SDS011;43809;52.110;20.964;2022-07-29T08:33:47;2.43;;;1.03;;
58015;SDS011;43809;52.110;20.964;2022-07-29T08:35:47;2.60;;;0.90;;
58015;SDS011;43809;52.110;20.964;2022-07-29T08:37:47;1.43;;;0.90;;
58015;SDS011;43809;52.110;20.964;2022-07-29T08:39:48;1.02;;;0.70;;
58015;SDS011;43809;52.110;20.964;2022-07-29T08:41:48;1.40;;;0.70;;
58015;SDS011;43809;52.110;20.964;2022-07-29T08:43:49;1.25;;;0.80;;
58015;SDS011;43809;52.110;20.964;2022-07-29T08:45:50;1.70;;;0.77;;
58015;SDS011;43809;52.110;20.964;2022-07-29T08:47:50;1.03;;;0.63;;
58015;SDS011;43809;52.110;20.964;2022-07-29T08:49:50;1.77;;;0.90;;
58015;SDS011;43809;52.110;20.964;2022-07-29T08:51:50;1.40;;;0.80;;
58015;SDS011;43809;52.110;20.964;2022-07-29T08:53:51;2.42;;;1.00;;
58015;SDS011;43809;52.110;20.964;2022-07-29T08:55:51;1.10;;;0.80;;
58015;SDS011;43809;52.110;20.964;2022-07-29T08:57:52;2.13;;;0.75;;
58015;SDS011;43809;52.110;20.964;2022-07-29T08:59:53;1.67;;;0.80;;
58015;SDS011;43809;52.110;20.964;2022-07-29T09:01:54;1.00;;;0.60;;
58015;SDS011;43809;52.110;20.964;2022-07-29T09:03:55;1.40;;;0.60;;
58015;SDS011;43809;52.110;20.964;2022-07-29T09:05:55;3.17;;;1.05;;
58015;SDS011;43809;52.110;20.964;2022-07-29T09:07:56;2.85;;;0.90;;
58015;SDS011;43809;52.110;20.964;2022-07-29T09:09:56;0.88;;;0.77;;
58015;SDS011;43809;52.110;20.964;2022-07-29T09:11:56;1.87;;;0.80;;
58015;SDS011;43809;52.110;20.964;2022-07-29T09:13:58;0.93;;;0.57;;
58015;SDS011;43809;52.110;20.964;2022-07-29T09:15:59;1.20;;;0.63;;
58015;SDS011;43809;52.110;20.964;2022-07-29T09:17:59;1.60;;;0.50;;
58015;SDS011;43809;52.110;20.964;2022-07-29T09:20:10;1.15;;;0.60;;
58015;SDS011;43809;52.110;20.964;2022-07-29T09:22:10;1.48;;;0.70;;
58015;SDS011;43809;52.110;20.964;2022-07-29T09:24:13;1.30;;;0.70;;
58015;SDS011;43809;52.110;20.964;2022-07-29T09:26:13;0.98;;;0.80;;
58015;SDS011;43809;52.110;20.964;2022-07-29T09:28:14;1.53;;;0.60;;
58015;SDS011;43809;52.110;20.964;2022-07-29T09:30:14;1.30;;;0.63;;
58015;SDS011;43809;52.110;20.964;2022-07-29T09:32:15;1.77;;;0.97;;
58015;SDS011;43809;52.110;20.964;2022-07-29T09:34:16;1.98;;;0.75;;
58015;SDS011;43809;52.110;20.964;2022-07-29T09:36:16;2.67;;;0.90;;
58015;SDS011;43809;52.110;20.964;2022-07-29T09:38:16;1.80;;;0.60;;
58015;SDS011;43809;52.110;20.964;2022-07-29T09:40:17;1.53;;;0.70;;
58015;SDS011;43809;52.110;20.964;2022-07-29T09:42:27;1.33;;;0.60;;
58015;SDS011;43809;52.110;20.964;2022-07-29T09:44:40;1.63;;;0.70;;
58015;SDS011;43809;52.110;20.964;2022-07-29T09:46:51;1.25;;;0.68;;
58015;SDS011;43809;52.110;20.964;2022-07-29T09:49:08;0.80;;;0.68;;
58015;SDS011;43809;52.110;20.964;2022-07-29T09:51:18;1.92;;;1.00;;
58015;SDS011;43809;52.110;20.964;2022-07-29T09:53:35;1.80;;;0.70;;
58015;SDS011;43809;52.110;20.964;2022-07-29T09:55:48;1.70;;;0.70;;
58015;SDS011;43809;52.110;20.964;2022-07-29T09:57:49;2.03;;;1.00;;
58015;SDS011;43809;52.110;20.964;2022-07-29T10:00:00;1.70;;;0.77;;
58015;SDS011;43809;52.110;20.964;2022-07-29T10:02:00;1.65;;;0.80;;
58015;SDS011;43809;52.110;20.964;2022-07-29T10:04:01;2.03;;;0.70;;
58015;SDS011;43809;52.110;20.964;2022-07-29T10:06:11;0.68;;;0.60;;
58015;SDS011;43809;52.110;20.964;2022-07-29T10:08:13;4.03;;;0.80;;
58015;SDS011;43809;52.110;20.964;2022-07-29T10:10:23;1.30;;;0.80;;
58015;SDS011;43809;52.110;20.964;2022-07-29T10:12:24;1.30;;;0.60;;
58015;SDS011;43809;52.110;20.964;2022-07-29T10:14:24;2.42;;;1.00;;
58015;SDS011;43809;52.110;20.964;2022-07-29T10:16:24;0.90;;;0.60;;
58015;SDS011;43809;52.110;20.964;2022-07-29T10:18:27;1.05;;;0.80;;
58015;SDS011;43809;52.110;20.964;2022-07-29T10:20:27;0.97;;;0.80;;
58015;SDS011;43809;52.110;20.964;2022-07-29T10:22:27;1.65;;;0.80;;
58015;SDS011;43809;52.110;20.964;2022-07-29T10:24:28;2.55;;;0.80;;
58015;SDS011;43809;52.110;20.964;2022-07-29T10:26:29;2.60;;;0.88;;
58015;SDS011;43809;52.110;20.964;2022-07-29T10:28:31;2.55;;;1.00;;
58015;SDS011;43809;52.110;20.964;2022-07-29T10:30:31;1.60;;;0.80;;
58015;SDS011;43809;52.110;20.964;2022-07-29T10:32:38;1.20;;;0.63;;
58015;SDS011;43809;52.110;20.964;2022-07-29T10:36:56;0.80;;;0.70;;
58015;SDS011;43809;52.110;20.964;2022-07-29T10:43:32;1.10;;;0.63;;
58015;SDS011;43809;52.110;20.964;2022-07-29T10:45:35;0.90;;;0.70;;
58015;SDS011;43809;52.110;20.964;2022-07-29T10:47:36;1.88;;;1.10;;
58015;SDS011;43809;52.110;20.964;2022-07-29T10:49:36;0.98;;;0.70;;
58015;SDS011;43809;52.110;20.964;2022-07-29T10:53:59;3.22;;;0.90;;
58015;SDS011;43809;52.110;20.964;2022-07-29T10:56:04;1.75;;;0.75;;
58015;SDS011;43809;52.110;20.964;2022-07-29T10:58:10;0.87;;;0.50;;
58015;SDS011;43809;52.110;20.964;2022-07-29T11:09:16;0.95;;;0.80;;
58015;SDS011;43809;52.110;20.964;2022-07-29T11:13:44;0.77;;;0.70;;
58015;SDS011;43809;52.110;20.964;2022-07-29T11:15:57;1.33;;;0.85;;
58015;SDS011;43809;52.110;20.964;2022-07-29T11:22:35;1.48;;;0.77;;
58015;SDS011;43809;52.110;20.964;2022-07-29T11:24:35;0.60;;;0.60;;
58015;SDS011;43809;52.110;20.964;2022-07-29T11:26:35;1.05;;;0.70;;
58015;SDS011;43809;52.110;20.964;2022-07-29T11:28:38;2.15;;;0.80;;
58015;SDS011;43809;52.110;20.964;2022-07-29T11:30:52;2.80;;;0.90;;
58015;SDS011;43809;52.110;20.964;2022-07-29T11:32:53;0.60;;;0.60;;
58015;SDS011;43809;52.110;20.964;2022-07-29T11:39:25;0.90;;;0.60;;
58015;SDS011;43809;52.110;20.964;2022-07-29T11:41:26;0.70;;;0.70;;
58015;SDS011;43809;52.110;20.964;2022-07-29T11:45:47;2.45;;;0.57;;
58015;SDS011;43809;52.110;20.964;2022-07-29T11:47:50;0.40;;;0.40;;
58015;SDS011;43809;52.110;20.964;2022-07-29T11:49:51;1.45;;;0.40;;
58015;SDS011;43809;52.110;20.964;2022-07-29T11:53:51;1.80;;;0.60;;
58015;SDS011;43809;52.110;20.964;2022-07-29T11:55:54;0.57;;;0.57;;
58015;SDS011;43809;52.110;20.964;2022-07-29T11:57:58;1.27;;;0.70;;
58015;SDS011;43809;52.110;20.964;2022-07-29T11:59:59;1.25;;;0.70;;
58015;SDS011;43809;52.110;20.964;2022-07-29T12:01:59;0.85;;;0.50;;
58015;SDS011;43809;52.110;20.964;2022-07-29T12:04:05;1.37;;;0.60;;
58015;SDS011;43809;52.110;20.964;2022-07-29T12:06:12;0.90;;;0.63;;
58015;SDS011;43809;52.110;20.964;2022-07-29T12:08:17;1.10;;;0.50;;
58015;SDS011;43809;52.110;20.964;2022-07-29T12:10:19;0.50;;;0.50;;
58015;SDS011;43809;52.110;20.964;2022-07-29T12:12:19;1.27;;;0.60;;
58015;SDS011;43809;52.110;20.964;2022-07-29T12:14:26;1.02;;;0.60;;
58015;SDS011;43809;52.110;20.964;2022-07-29T12:16:35;0.63;;;0.50;;
58015;SDS011;43809;52.110;20.964;2022-07-29T12:18:36;1.20;;;0.60;;
58015;SDS011;43809;52.110;20.964;2022-07-29T12:20:37;0.68;;;0.50;;
58015;SDS011;43809;52.110;20.964;2022-07-29T12:22:38;1.17;;;0.60;;
58015;SDS011;43809;52.110;20.964;2022-07-29T12:24:43;2.50;;;0.90;;
58015;SDS011;43809;52.110;20.964;2022-07-29T12:26:53;1.55;;;0.68;;
58015;SDS011;43809;52.110;20.964;2022-07-29T12:28:54;1.15;;;0.70;;
58015;SDS011;43809;52.110;20.964;2022-07-29T12:30:54;0.52;;;0.45;;
58015;SDS011;43809;52.110;20.964;2022-07-29T12:32:54;1.05;;;0.60;;
58015;SDS011;43809;52.110;20.964;2022-07-29T12:34:55;2.83;;;0.60;;
58015;SDS011;43809;52.110;20.964;2022-07-29T12:36:55;2.40;;;0.60;;
58015;SDS011;43809;52.110;20.964;2022-07-29T12:38:55;0.98;;;0.50;;
58015;SDS011;43809;52.110;20.964;2022-07-29T12:40:55;3.03;;;0.80;;
58015;SDS011;43809;52.110;20.964;2022-07-29T12:45:06;1.33;;;0.82;;
58015;SDS011;43809;52.110;20.964;2022-07-29T12:47:06;0.60;;;0.60;;
58015;SDS011;43809;52.110;20.964;2022-07-29T12:49:07;0.70;;;0.40;;
58015;SDS011;43809;52.110;20.964;2022-07-29T12:51:08;1.10;;;0.53;;
58015;SDS011;43809;52.110;20.964;2022-07-29T12:53:12;0.73;;;0.50;;